createdAt,value
2023-10-24T00:00:08.325Z,5.20
2023-10-24T00:02:34.951Z,5.03
2023-10-24T00:05:01.587Z,5.57
2023-10-24T00:07:28.238Z,5.68
2023-10-24T00:09:54.784Z,5.70
2023-10-24T00:12:21.308Z,5.63
2023-10-24T00:14:47.778Z,5.77
2023-10-24T00:17:14.264Z,5.47
2023-10-24T00:19:40.805Z,6.13
2023-10-24T00:22:07.329Z,5.60
2023-10-24T00:24:34.092Z,5.50
2023-10-24T00:27:00.549Z,5.30
2023-10-24T00:29:27.691Z,5.65
2023-10-24T00:31:54.205Z,5.80
2023-10-24T00:34:20.852Z,5.85
2023-10-24T00:36:47.354Z,5.50
2023-10-24T00:39:13.941Z,6.37
2023-10-24T00:41:40.632Z,6.05
2023-10-24T00:44:08.243Z,6.18
2023-10-24T00:46:37.421Z,5.78
2023-10-24T00:49:04.614Z,6.25
2023-10-24T00:51:31.554Z,6.47
2023-10-24T00:54:00.276Z,5.90
2023-10-24T00:56:28.880Z,6.43
2023-10-24T00:58:55.739Z,6.30
2023-10-24T01:01:22.455Z,6.53
2023-10-24T01:03:50.371Z,7.03
2023-10-24T01:06:17.461Z,6.38
2023-10-24T01:08:45.433Z,6.32
2023-10-24T01:11:12.463Z,7.57
2023-10-24T01:13:39.152Z,6.80
2023-10-24T01:16:05.830Z,7.07
2023-10-24T01:18:32.334Z,7.57
2023-10-24T01:20:58.885Z,7.22
2023-10-24T01:23:32.433Z,7.50
2023-10-24T01:26:00.051Z,7.13
2023-10-24T01:28:30.355Z,7.00
2023-10-24T01:30:56.875Z,7.65
2023-10-24T01:33:24.075Z,7.80
2023-10-24T01:35:50.661Z,7.53
2023-10-24T01:38:17.111Z,8.18
2023-10-24T01:40:43.667Z,8.30
2023-10-24T01:43:10.239Z,8.23
2023-10-24T01:45:36.738Z,8.27
2023-10-24T01:48:03.613Z,9.02
2023-10-24T01:50:30.217Z,8.30
2023-10-24T01:52:59.160Z,8.70
2023-10-24T01:55:25.702Z,9.45
2023-10-24T01:57:52.259Z,9.23
2023-10-24T02:00:19.142Z,9.65
2023-10-24T02:02:45.644Z,10.20
2023-10-24T02:05:13.366Z,10.27
2023-10-24T02:07:40.206Z,10.07
2023-10-24T02:10:07.332Z,9.80
2023-10-24T02:12:35.433Z,10.25
2023-10-24T02:15:01.896Z,10.02
2023-10-24T02:17:28.368Z,9.00
2023-10-24T02:19:54.897Z,9.68
2023-10-24T02:22:21.845Z,10.20
2023-10-24T02:24:48.422Z,8.45
2023-10-24T02:27:14.910Z,10.10
2023-10-24T02:29:41.375Z,9.70
2023-10-24T02:32:07.925Z,9.23
2023-10-24T02:34:34.588Z,9.45
2023-10-24T02:37:01.145Z,10.20
2023-10-24T02:39:27.637Z,9.70
2023-10-24T02:41:54.134Z,10.60
2023-10-24T02:44:21.734Z,9.30
2023-10-24T02:46:48.277Z,11.18
2023-10-24T02:49:16.049Z,10.02
2023-10-24T02:51:43.038Z,11.10
2023-10-24T02:54:09.637Z,11.00
2023-10-24T02:56:36.141Z,11.88
2023-10-24T02:59:02.642Z,12.77
2023-10-24T03:01:29.252Z,13.32
2023-10-24T03:03:55.843Z,13.43
2023-10-24T03:06:22.358Z,13.47
2023-10-24T03:08:49.843Z,12.20
2023-10-24T03:11:25.705Z,14.07
2023-10-24T03:13:56.119Z,12.68
2023-10-24T03:16:23.503Z,13.23
2023-10-24T03:18:50.253Z,13.23
2023-10-24T03:21:16.852Z,13.25
2023-10-24T03:23:45.427Z,13.57
2023-10-24T03:26:12.005Z,13.07
2023-10-24T03:28:38.571Z,14.18
2023-10-24T03:31:07.686Z,12.60
2023-10-24T03:33:34.984Z,13.88
2023-10-24T03:36:01.886Z,12.20
2023-10-24T03:38:28.434Z,11.90
2023-10-24T03:40:55.328Z,12.40
2023-10-24T03:43:22.861Z,13.57
2023-10-24T03:45:49.842Z,12.77
2023-10-24T03:48:16.651Z,12.65
2023-10-24T03:50:43.157Z,13.05
2023-10-24T03:53:09.748Z,11.88
2023-10-24T03:55:36.390Z,11.93
2023-10-24T03:58:02.896Z,11.95
2023-10-24T04:00:29.458Z,11.98
2023-10-24T04:02:56.258Z,10.13
2023-10-24T04:05:23.689Z,11.02
2023-10-24T04:07:50.315Z,9.03
2023-10-24T04:10:17.201Z,9.35
2023-10-24T04:12:43.743Z,8.80
2023-10-24T04:15:10.251Z,7.50
2023-10-24T04:17:36.952Z,8.20
2023-10-24T04:20:04.123Z,7.57
2023-10-24T04:22:31.443Z,8.57
2023-10-24T04:24:57.973Z,9.10
2023-10-24T04:27:25.885Z,8.50
2023-10-24T04:29:52.316Z,9.65
2023-10-24T04:32:18.762Z,9.87
2023-10-24T04:34:46.195Z,10.30
2023-10-24T04:37:12.740Z,8.50
2023-10-24T04:39:39.734Z,7.63
2023-10-24T04:42:06.296Z,6.85
2023-10-24T04:44:32.755Z,6.37
2023-10-24T04:47:00.474Z,6.07
2023-10-24T04:49:27.112Z,5.40
2023-10-24T04:51:53.669Z,4.70
2023-10-24T04:54:20.187Z,5.45
2023-10-24T04:56:46.640Z,5.50
2023-10-24T04:59:13.140Z,3.20
2023-10-24T05:01:39.913Z,3.58
2023-10-24T05:04:07.399Z,3.67
2023-10-24T05:06:34.283Z,2.97
2023-10-24T05:09:01.192Z,3.10
2023-10-24T05:11:27.832Z,3.20
2023-10-24T05:13:54.517Z,3.70
2023-10-24T05:16:21.100Z,3.35
2023-10-24T05:18:47.645Z,2.78
2023-10-24T05:21:14.132Z,3.33
2023-10-24T05:23:40.659Z,3.53
2023-10-24T05:26:07.139Z,3.80
2023-10-24T05:28:35.215Z,3.70
2023-10-24T05:31:09.244Z,2.92
2023-10-24T05:33:36.926Z,2.60
2023-10-24T05:36:04.331Z,3.30
2023-10-24T05:38:31.082Z,3.40
2023-10-24T05:40:57.622Z,3.10
2023-10-24T05:43:24.184Z,3.05
2023-10-24T05:45:50.932Z,3.10
2023-10-24T05:48:17.476Z,3.25
2023-10-24T05:50:46.788Z,3.10
2023-10-24T05:53:13.397Z,3.90
2023-10-24T05:55:41.022Z,3.50
2023-10-24T05:58:08.799Z,3.60
2023-10-24T06:00:35.385Z,3.90
2023-10-24T06:03:01.962Z,3.97
2023-10-24T06:05:28.519Z,4.10
2023-10-24T06:07:55.145Z,6.85
2023-10-24T06:10:21.703Z,6.10
2023-10-24T06:12:48.221Z,7.07
2023-10-24T06:15:14.667Z,8.70
2023-10-24T06:17:41.266Z,8.35
2023-10-24T06:20:08.445Z,9.65
2023-10-24T06:22:35.020Z,9.63
2023-10-24T06:25:01.816Z,8.55
2023-10-24T06:27:28.320Z,12.40
2023-10-24T06:29:54.846Z,12.60
2023-10-24T06:32:21.472Z,13.07
2023-10-24T06:34:48.201Z,12.97
2023-10-24T06:37:14.790Z,13.13
2023-10-24T06:39:41.320Z,12.43
2023-10-24T06:42:07.950Z,13.05
2023-10-24T06:44:34.420Z,13.27
2023-10-24T06:47:00.966Z,12.57
2023-10-24T06:49:27.901Z,12.48
2023-10-24T06:51:54.435Z,12.60
2023-10-24T06:54:20.994Z,11.90
2023-10-24T06:56:47.527Z,11.68
2023-10-24T06:59:13.938Z,11.83
2023-10-24T07:01:40.614Z,11.63
2023-10-24T07:04:07.332Z,10.90
2023-10-24T07:06:33.866Z,12.40
2023-10-24T07:09:01.452Z,11.95
2023-10-24T07:11:28.545Z,11.07
2023-10-24T07:13:55.186Z,11.73
2023-10-24T07:16:22.657Z,11.32
2023-10-24T07:18:49.313Z,11.27
2023-10-24T07:21:16.782Z,10.65
2023-10-24T07:23:43.352Z,9.40
2023-10-24T07:26:10.047Z,9.27
2023-10-24T07:28:36.762Z,8.60
2023-10-24T07:31:03.566Z,8.52
2023-10-24T07:33:30.204Z,8.55
2023-10-24T07:36:06.683Z,8.27
2023-10-24T07:38:33.414Z,8.45
2023-10-24T07:41:00.843Z,9.57
2023-10-24T07:43:27.886Z,10.18
2023-10-24T07:45:54.864Z,10.10
2023-10-24T07:48:21.648Z,9.10
2023-10-24T07:50:55.292Z,9.10
2023-10-24T07:53:23.693Z,9.25
2023-10-24T07:55:50.987Z,8.68
2023-10-24T07:58:18.128Z,8.43
2023-10-24T08:00:45.490Z,6.90
2023-10-24T08:03:14.078Z,7.10
2023-10-24T08:05:41.210Z,7.50
2023-10-24T08:08:07.885Z,7.47
2023-10-24T08:10:34.975Z,6.43
2023-10-24T08:13:02.077Z,5.03
2023-10-24T08:15:29.242Z,4.22
2023-10-24T08:17:56.200Z,4.20
2023-10-24T08:20:23.042Z,3.55
2023-10-24T08:22:49.583Z,3.60
2023-10-24T08:25:16.269Z,3.43
2023-10-24T08:27:42.770Z,3.80
2023-10-24T08:30:09.765Z,3.83
2023-10-24T08:32:36.373Z,4.32
2023-10-24T08:35:03.124Z,4.95
2023-10-24T08:37:29.785Z,3.70
2023-10-24T08:39:56.348Z,4.70
2023-10-24T08:42:23.777Z,6.10
2023-10-24T08:44:52.240Z,6.32
2023-10-24T08:47:21.041Z,5.68
2023-10-24T08:49:47.704Z,4.97
2023-10-24T08:52:30.063Z,5.22
2023-10-24T08:55:02.395Z,4.43
2023-10-24T08:57:31.702Z,2.97
2023-10-24T08:59:59.565Z,2.60
2023-10-24T09:02:26.664Z,2.50
2023-10-24T09:04:53.671Z,2.30
2023-10-24T09:07:20.284Z,2.40
2023-10-24T09:09:46.866Z,2.47
2023-10-24T09:12:15.912Z,2.45
2023-10-24T09:14:53.640Z,2.67
2023-10-24T09:17:23.698Z,2.63
2023-10-24T09:19:50.572Z,2.70
2023-10-24T09:22:18.394Z,2.65
2023-10-24T09:24:49.260Z,3.20
2023-10-24T09:27:17.187Z,3.30
2023-10-24T09:29:44.320Z,3.40
2023-10-24T09:32:18.995Z,2.85
2023-10-24T09:34:47.009Z,3.50
2023-10-24T09:37:14.838Z,5.03
2023-10-24T09:40:13.896Z,3.60
2023-10-24T09:42:43.188Z,3.08
2023-10-24T09:45:10.985Z,2.70
2023-10-24T09:47:42.322Z,2.88
2023-10-24T09:50:12.824Z,2.83
2023-10-24T09:52:39.530Z,2.80
2023-10-24T09:55:07.335Z,2.63
2023-10-24T09:57:34.699Z,2.60
2023-10-24T10:00:01.700Z,2.67
2023-10-24T10:02:29.021Z,2.40
2023-10-24T10:04:56.490Z,2.57
2023-10-24T10:07:26.618Z,2.63
2023-10-24T10:09:54.742Z,2.83
2023-10-24T10:12:21.433Z,2.70
2023-10-24T10:15:12.578Z,2.90
2023-10-24T10:17:59.743Z,2.70
2023-10-24T10:20:57.436Z,2.45
2023-10-24T10:23:40.802Z,3.00
2023-10-24T10:26:23.852Z,2.83
2023-10-24T10:29:15.039Z,2.47
2023-10-24T10:32:40.644Z,2.30
2023-10-24T10:34:52.130Z,2.40
2023-10-24T10:37:18.865Z,2.60
2023-10-24T10:40:25.477Z,2.30
2023-10-24T10:42:52.671Z,8.60
2023-10-24T10:45:29.332Z,5.23
2023-10-24T10:47:58.817Z,2.83
2023-10-24T10:50:33.403Z,2.90
2023-10-24T10:53:24.559Z,2.70
2023-10-24T10:56:03.376Z,2.72
2023-10-24T10:58:47.036Z,2.23
2023-10-24T11:01:23.326Z,2.70
2023-10-24T11:03:50.654Z,3.20
2023-10-24T11:06:18.843Z,3.05
2023-10-24T11:09:06.214Z,3.67
2023-10-24T11:11:32.838Z,3.53
2023-10-24T11:14:20.600Z,3.53
2023-10-24T11:16:51.473Z,3.30
2023-10-24T11:19:28.086Z,3.45
2023-10-24T11:21:56.182Z,3.70
2023-10-24T11:24:23.878Z,4.33
2023-10-24T11:26:57.703Z,3.25
2023-10-24T11:29:24.627Z,3.00
2023-10-24T11:31:51.985Z,4.20
2023-10-24T11:34:19.816Z,5.97
2023-10-24T11:36:47.060Z,5.63
2023-10-24T11:39:15.364Z,5.63
2023-10-24T11:41:43.489Z,5.07
2023-10-24T11:44:12.919Z,5.32
2023-10-24T11:46:40.695Z,5.50
2023-10-24T11:49:08.413Z,5.57
2023-10-24T11:51:36.573Z,5.20
2023-10-24T11:54:08.438Z,5.05
2023-10-24T11:56:35.357Z,5.13
2023-10-24T11:59:03.647Z,5.60
2023-10-24T12:01:31.944Z,4.90
2023-10-24T12:04:00.441Z,5.28
2023-10-24T12:06:27.805Z,5.10
2023-10-24T12:08:55.034Z,5.68
2023-10-24T12:11:23.077Z,5.13
2023-10-24T12:13:49.702Z,5.77
2023-10-24T12:16:16.545Z,5.28
2023-10-24T12:18:43.218Z,6.82
2023-10-24T12:21:10.998Z,6.70
2023-10-24T12:23:38.094Z,6.82
2023-10-24T12:26:05.788Z,6.67
2023-10-24T12:28:37.254Z,6.68
2023-10-24T12:31:05.403Z,7.72
2023-10-24T12:33:32.309Z,9.98
2023-10-24T12:36:01.464Z,7.90
2023-10-24T12:38:29.050Z,9.37
2023-10-24T12:40:55.918Z,7.57
2023-10-24T12:43:22.474Z,7.05
2023-10-24T12:45:49.058Z,6.93
2023-10-24T12:48:17.788Z,6.03
2023-10-24T12:50:46.238Z,6.37
2023-10-24T12:53:13.822Z,6.53
2023-10-24T12:55:40.728Z,5.68
2023-10-24T12:58:07.339Z,7.65
2023-10-24T13:00:33.876Z,7.50
2023-10-24T13:03:10.887Z,7.37
2023-10-24T13:05:42.684Z,6.32
2023-10-24T13:08:10.003Z,6.32
2023-10-24T13:10:36.901Z,6.72
2023-10-24T13:13:03.477Z,7.70
2023-10-24T13:15:30.045Z,7.10
2023-10-24T13:17:56.599Z,7.00
2023-10-24T13:20:23.049Z,7.35
2023-10-24T13:22:49.644Z,6.55
2023-10-24T13:25:16.235Z,7.20
2023-10-24T13:27:42.699Z,6.50
2023-10-24T13:30:09.748Z,6.18
2023-10-24T13:32:36.650Z,6.00
2023-10-24T13:37:32.839Z,5.28
2023-10-24T13:39:59.292Z,4.80
2023-10-24T13:42:25.745Z,5.10
2023-10-24T13:44:52.272Z,5.45
2023-10-24T13:47:18.895Z,5.55
2023-10-24T13:49:45.442Z,4.63
2023-10-24T13:52:14.830Z,5.63
2023-10-24T13:54:41.452Z,4.78
2023-10-24T13:57:08.057Z,4.90
2023-10-24T13:59:34.617Z,7.35
2023-10-24T14:02:01.187Z,4.43
2023-10-24T14:04:27.775Z,4.00
2023-10-24T14:06:56.341Z,4.03
2023-10-24T14:09:23.020Z,4.28
2023-10-24T14:11:49.585Z,3.92
2023-10-24T14:14:17.280Z,4.30
2023-10-24T14:16:44.354Z,4.03
2023-10-24T14:19:10.949Z,4.95
2023-10-24T14:21:37.411Z,5.32
2023-10-24T14:24:04.030Z,5.57
2023-10-24T14:26:30.677Z,4.90
2023-10-24T14:28:57.275Z,5.53
2023-10-24T14:31:23.853Z,6.00
2023-10-24T14:33:50.333Z,6.00
2023-10-24T14:36:16.837Z,5.93
2023-10-24T14:38:43.323Z,7.10
2023-10-24T14:41:09.913Z,8.57
2023-10-24T14:43:36.629Z,7.10
2023-10-24T14:46:03.403Z,7.45
2023-10-24T14:48:29.931Z,7.50
2023-10-24T14:50:56.439Z,5.10
2023-10-24T14:53:22.969Z,4.43
2023-10-24T14:55:49.576Z,3.70
2023-10-24T14:58:16.218Z,2.38
2023-10-24T15:00:45.971Z,2.67
2023-10-24T15:03:12.577Z,1.90
2023-10-24T15:05:39.180Z,2.73
2023-10-24T15:08:09.411Z,1.80
2023-10-24T15:10:36.074Z,2.00
2023-10-24T15:13:02.545Z,1.90
2023-10-24T15:15:29.105Z,3.58
2023-10-24T15:17:55.931Z,2.70
2023-10-24T15:20:22.640Z,1.90
2023-10-24T15:22:50.261Z,2.85
2023-10-24T15:25:16.973Z,2.67
2023-10-24T15:27:43.456Z,1.70
2023-10-24T15:30:10.689Z,1.80
2023-10-24T15:32:37.242Z,1.60
2023-10-24T15:35:04.587Z,2.33
2023-10-24T15:37:31.252Z,2.10
2023-10-24T15:39:58.525Z,1.85
2023-10-24T15:42:25.001Z,1.90
2023-10-24T15:44:57.783Z,1.65
2023-10-24T15:47:24.465Z,2.33
2023-10-24T15:49:51.092Z,2.70
2023-10-24T15:52:18.475Z,2.22
2023-10-24T15:54:46.004Z,2.10
2023-10-24T15:57:12.649Z,2.00
2023-10-24T15:59:39.090Z,1.92
2023-10-24T16:02:05.719Z,2.00
2023-10-24T16:04:32.376Z,2.30
2023-10-24T16:07:01.330Z,2.10
2023-10-24T16:09:27.915Z,2.70
2023-10-24T16:11:54.397Z,4.78
2023-10-24T16:14:21.848Z,3.15
2023-10-24T16:16:48.493Z,7.28
2023-10-24T16:19:15.074Z,3.40
2023-10-24T16:21:41.675Z,2.13
2023-10-24T16:24:08.610Z,2.67
2023-10-24T16:26:35.122Z,3.63
2023-10-24T16:29:01.684Z,10.27
2023-10-24T16:31:29.078Z,10.10
2023-10-24T16:33:55.617Z,9.98
2023-10-24T16:36:22.820Z,10.00
2023-10-24T16:38:49.287Z,8.50
2023-10-24T16:41:16.014Z,7.15
2023-10-24T16:43:42.662Z,8.13
2023-10-24T16:46:09.572Z,6.07
2023-10-24T16:48:36.508Z,15.00
2023-10-24T16:51:04.342Z,5.90
2023-10-24T16:53:31.349Z,4.05
2023-10-24T16:55:58.364Z,4.20
2023-10-24T16:58:28.487Z,4.30
2023-10-24T17:00:56.434Z,3.88
2023-10-24T17:03:23.281Z,29.85
2023-10-24T17:05:49.932Z,14.98
2023-10-24T17:08:16.498Z,11.23
2023-10-24T17:10:43.384Z,24.60
2023-10-24T17:13:10.997Z,13.13
2023-10-24T17:15:37.662Z,15.80
2023-10-24T17:18:04.494Z,19.17
2023-10-24T17:20:35.295Z,15.40
2023-10-24T17:23:02.971Z,11.75
2023-10-24T17:25:30.094Z,8.38
2023-10-24T17:27:56.823Z,5.38
2023-10-24T17:30:25.674Z,7.60
2023-10-24T17:32:55.433Z,25.43
2023-10-24T17:35:22.205Z,13.77
2023-10-24T17:37:48.871Z,14.32
2023-10-24T17:40:15.361Z,11.90
2023-10-24T17:42:42.322Z,11.93
2023-10-24T17:45:09.170Z,13.23
2023-10-24T17:47:35.740Z,18.80
2023-10-24T17:50:03.910Z,21.38
2023-10-24T17:52:30.603Z,19.98
2023-10-24T17:54:57.172Z,14.68
2023-10-24T17:57:24.036Z,12.80
2023-10-24T17:59:52.212Z,12.27
2023-10-24T18:02:19.390Z,11.90
2023-10-24T18:04:46.049Z,10.07
2023-10-24T18:07:27.066Z,9.50
2023-10-24T18:09:54.814Z,8.20
2023-10-24T18:12:21.318Z,8.05
2023-10-24T18:14:47.854Z,8.82
2023-10-24T18:17:14.383Z,12.50
2023-10-24T18:19:42.140Z,10.85
2023-10-24T18:22:08.791Z,7.47
2023-10-24T18:24:35.321Z,8.35
2023-10-24T18:27:01.761Z,6.18
2023-10-24T18:29:29.790Z,5.03
2023-10-24T18:31:56.391Z,6.07
2023-10-24T18:34:22.854Z,8.60
2023-10-24T18:36:49.303Z,9.02
2023-10-24T18:39:15.883Z,8.25
2023-10-24T18:41:43.184Z,10.60
2023-10-24T18:44:12.736Z,26.00
2023-10-24T18:46:45.845Z,15.90
2023-10-24T18:49:12.925Z,11.27
2023-10-24T18:51:39.629Z,10.20
2023-10-24T18:54:06.161Z,10.52
2023-10-24T18:56:34.274Z,7.55
2023-10-24T18:59:01.191Z,5.60
2023-10-24T19:01:27.749Z,6.80
2023-10-24T19:03:54.371Z,10.68
2023-10-24T19:06:20.975Z,15.15
2023-10-24T19:08:47.486Z,18.85
2023-10-24T19:11:15.175Z,19.20
2023-10-24T19:13:41.944Z,17.98
2023-10-24T19:16:09.023Z,19.77
2023-10-24T19:18:35.700Z,12.18
2023-10-24T19:21:02.560Z,8.18
2023-10-24T19:23:29.385Z,8.77
2023-10-24T19:25:56.194Z,9.77
2023-10-24T19:28:25.608Z,9.13
2023-10-24T19:30:52.444Z,8.95
2023-10-24T19:33:19.234Z,9.18
2023-10-24T19:35:48.945Z,11.47
2023-10-24T19:38:18.788Z,16.42
2023-10-24T19:40:45.595Z,14.23
2023-10-24T19:43:12.631Z,13.85
2023-10-24T19:45:40.126Z,13.18
2023-10-24T19:48:15.106Z,28.93
2023-10-24T19:50:41.888Z,22.08
2023-10-24T19:53:08.733Z,20.83
2023-10-24T19:55:35.566Z,10.70
2023-10-24T19:58:02.608Z,10.77
2023-10-24T20:00:31.150Z,10.87
2023-10-24T20:02:58.140Z,11.82
2023-10-24T20:05:25.098Z,8.82
2023-10-24T20:07:53.147Z,7.35
2023-10-24T20:11:39.478Z,7.65
2023-10-24T20:13:14.995Z,9.00
2023-10-24T20:15:45.355Z,9.43
2023-10-24T20:18:12.575Z,9.52
2023-10-24T20:20:40.469Z,12.82
2023-10-24T20:23:07.455Z,9.70
2023-10-24T20:25:34.400Z,10.87
2023-10-24T20:28:01.123Z,8.95
2023-10-24T20:30:27.790Z,11.20
2023-10-24T20:32:55.241Z,10.45
2023-10-24T20:35:27.509Z,14.63
2023-10-24T20:37:55.711Z,19.40
2023-10-24T20:40:22.834Z,11.45
2023-10-24T20:42:49.788Z,13.05
2023-10-24T20:45:18.257Z,11.75
2023-10-24T20:47:45.036Z,11.05
2023-10-24T20:50:12.561Z,10.33
2023-10-24T20:52:39.238Z,9.50
2023-10-24T20:55:06.084Z,7.93
2023-10-24T20:57:33.602Z,6.95
2023-10-24T21:00:00.320Z,9.05
2023-10-24T21:02:27.278Z,10.67
2023-10-24T21:04:54.091Z,9.73
2023-10-24T21:07:20.802Z,6.25
2023-10-24T21:09:47.490Z,6.10
2023-10-24T21:12:15.393Z,6.15
2023-10-24T21:14:42.268Z,4.00
2023-10-24T21:17:08.884Z,3.83
2023-10-24T21:19:35.451Z,7.05
2023-10-24T21:22:02.659Z,6.47
2023-10-24T21:24:29.336Z,5.47
2023-10-24T21:26:56.012Z,5.40
2023-10-24T21:29:25.282Z,5.20
2023-10-24T21:31:52.829Z,5.32
2023-10-24T21:34:19.444Z,4.35
2023-10-24T21:36:45.974Z,3.95
2023-10-24T21:39:13.340Z,3.80
2023-10-24T21:41:41.511Z,3.75
2023-10-24T21:44:08.093Z,3.92
2023-10-24T21:46:35.897Z,3.42
2023-10-24T21:49:02.511Z,3.80
2023-10-24T21:51:29.042Z,3.93
2023-10-24T21:53:55.664Z,3.50
2023-10-24T21:56:22.244Z,3.78
2023-10-24T21:58:48.912Z,3.95
2023-10-24T22:01:16.411Z,3.05
2023-10-24T22:03:46.987Z,3.70
2023-10-24T22:06:13.913Z,3.80
2023-10-24T22:08:40.583Z,4.00
2023-10-24T22:11:07.519Z,3.70
2023-10-24T22:13:34.437Z,5.30
2023-10-24T22:16:01.128Z,7.30
2023-10-24T22:18:27.824Z,8.30
2023-10-24T22:20:54.574Z,7.20
2023-10-24T22:23:21.161Z,6.47
2023-10-24T22:25:47.725Z,6.35
2023-10-24T22:28:14.327Z,6.90
2023-10-24T22:30:40.940Z,5.90
2023-10-24T22:33:07.492Z,6.05
2023-10-24T22:35:34.098Z,5.40
2023-10-24T22:38:00.646Z,5.05
2023-10-24T22:40:27.305Z,4.80
2023-10-24T22:42:53.854Z,5.07
2023-10-24T22:45:20.625Z,4.32
2023-10-24T22:47:48.509Z,4.53
2023-10-24T22:50:16.326Z,4.07
2023-10-24T22:52:44.247Z,4.00
2023-10-24T22:55:10.807Z,4.35
2023-10-24T22:57:37.366Z,4.18
2023-10-24T23:00:05.945Z,3.60
2023-10-24T23:02:32.669Z,3.92
2023-10-24T23:04:59.227Z,4.40
2023-10-24T23:07:26.006Z,4.10
2023-10-24T23:09:52.588Z,4.10
2023-10-24T23:12:19.113Z,3.53
2023-10-24T23:14:45.624Z,4.03
2023-10-24T23:17:12.223Z,4.17
2023-10-24T23:19:39.371Z,3.83
2023-10-24T23:22:06.178Z,4.00
2023-10-24T23:24:32.798Z,4.22
2023-10-24T23:26:59.345Z,3.65
2023-10-24T23:29:25.970Z,3.30
2023-10-24T23:31:52.561Z,3.83
2023-10-24T23:34:19.149Z,3.88
2023-10-24T23:36:46.561Z,3.67
2023-10-24T23:39:13.258Z,3.72
2023-10-24T23:41:39.867Z,3.30
2023-10-24T23:44:07.212Z,3.30
2023-10-24T23:46:34.403Z,3.45
2023-10-24T23:49:00.976Z,3.42
2023-10-24T23:51:27.749Z,3.83
2023-10-24T23:53:54.259Z,3.83
2023-10-24T23:56:20.851Z,3.47
2023-10-24T23:58:47.393Z,3.60
